createdAt,value
2018-04-25T00:02:14.288Z,93.00
2018-04-25T00:04:41.786Z,93.00
2018-04-25T00:07:09.264Z,93.10
2018-04-25T00:09:36.765Z,92.90
2018-04-25T00:12:04.238Z,92.80
2018-04-25T00:14:31.744Z,92.90
2018-04-25T00:16:59.993Z,92.70
2018-04-25T00:19:27.513Z,92.70
2018-04-25T00:21:55.753Z,93.10
2018-04-25T00:24:23.245Z,93.10
2018-04-25T00:26:50.757Z,93.50
2018-04-25T00:29:18.265Z,93.70
2018-04-25T00:31:45.744Z,93.70
2018-04-25T00:34:13.221Z,93.60
2018-04-25T00:36:40.747Z,93.80
2018-04-25T00:39:08.227Z,93.80
2018-04-25T00:41:35.733Z,93.60
2018-04-25T00:44:03.212Z,93.50
2018-04-25T00:46:30.734Z,93.80
2018-04-25T00:48:58.216Z,94.10
2018-04-25T00:51:25.730Z,94.40
2018-04-25T00:53:53.205Z,94.30
2018-04-25T00:56:20.723Z,94.40
2018-04-25T00:58:48.201Z,94.40
2018-04-25T01:01:15.711Z,94.50
2018-04-25T01:03:43.197Z,94.70
2018-04-25T01:06:10.708Z,94.70
2018-04-25T01:08:38.189Z,94.60
2018-04-25T01:11:05.701Z,94.60
2018-04-25T01:13:33.177Z,94.80
2018-04-25T01:16:00.657Z,95.10
2018-04-25T01:18:28.935Z,95.20
2018-04-25T01:20:56.420Z,95.20
2018-04-25T01:23:24.696Z,95.00
2018-04-25T01:25:58.409Z,95.00
2018-04-25T01:28:25.905Z,95.00
2018-04-25T01:31:05.176Z,95.10
2018-04-25T01:39:41.073Z,95.40
2018-04-25T01:42:33.055Z,95.40
2018-04-25T01:45:03.989Z,95.50
2018-04-25T01:47:33.058Z,95.30
2018-04-25T01:53:11.733Z,95.00
2018-04-25T01:55:51.036Z,95.00
2018-04-25T01:58:30.566Z,95.00
2018-04-25T02:01:10.642Z,94.80
2018-04-25T02:03:59.758Z,94.80
2018-04-25T02:06:27.241Z,94.80
2018-04-25T02:08:54.774Z,94.80
2018-04-25T02:11:22.263Z,94.90
2018-04-25T02:13:49.745Z,94.80
2018-04-25T02:16:17.270Z,94.60
2018-04-25T02:18:45.509Z,94.40
2018-04-25T02:21:13.022Z,94.30
2018-04-25T02:23:41.283Z,94.20
2018-04-25T02:26:08.794Z,94.20
2018-04-25T02:28:37.042Z,93.90
2018-04-25T02:31:04.566Z,93.90
2018-04-25T02:33:32.045Z,93.80
2018-04-25T02:35:59.559Z,93.90
2018-04-25T02:38:27.044Z,93.90
2018-04-25T02:40:54.569Z,94.00
2018-04-25T02:43:22.049Z,94.20
2018-04-25T02:45:49.549Z,94.30
2018-04-25T02:48:17.190Z,94.30
2018-04-25T02:50:44.670Z,94.30
2018-04-25T02:53:12.192Z,94.40
2018-04-25T02:55:40.432Z,94.50
2018-04-25T02:58:07.946Z,94.40
2018-04-25T03:00:35.426Z,94.70
2018-04-25T03:03:03.714Z,94.60
2018-04-25T03:05:31.193Z,94.50
2018-04-25T03:07:59.466Z,94.70
2018-04-25T03:10:26.941Z,94.70
2018-04-25T03:12:55.225Z,94.60
2018-04-25T03:15:22.704Z,94.60
2018-04-25T03:17:50.998Z,94.20
2018-04-25T03:20:18.479Z,94.20
2018-04-25T03:22:46.725Z,94.40
2018-04-25T03:25:14.246Z,94.40
2018-04-25T03:27:41.737Z,94.50
2018-04-25T03:30:09.255Z,94.60
2018-04-25T03:32:36.730Z,94.70
2018-04-25T03:35:04.242Z,94.70
2018-04-25T03:37:31.725Z,94.90
2018-04-25T03:39:59.245Z,95.00
2018-04-25T03:42:27.418Z,95.10
2018-04-25T03:44:54.930Z,95.20
2018-04-25T03:47:22.409Z,95.50
2018-04-25T03:49:50.004Z,95.40
2018-04-25T03:52:17.493Z,95.70
2018-04-25T03:54:45.016Z,95.50
2018-04-25T03:57:12.498Z,95.60
2018-04-25T03:59:39.978Z,95.60
2018-04-25T04:02:07.492Z,95.80
2018-04-25T04:04:34.976Z,95.90
2018-04-25T04:07:03.298Z,95.90
2018-04-25T04:09:30.784Z,95.90
2018-04-25T04:11:58.309Z,95.60
2018-04-25T04:14:26.561Z,95.90
2018-04-25T04:16:54.079Z,95.50
2018-04-25T04:19:22.334Z,95.70
2018-04-25T04:21:49.869Z,95.70
2018-04-25T04:24:17.353Z,96.10
2018-04-25T04:26:44.865Z,95.70
2018-04-25T04:29:12.354Z,95.50
2018-04-25T04:31:39.902Z,95.90
2018-04-25T04:34:07.461Z,95.60
2018-04-25T04:36:35.694Z,95.60
2018-04-25T04:39:03.175Z,95.70
2018-04-25T04:41:30.649Z,95.40
2018-04-25T04:43:58.182Z,95.30
2018-04-25T04:46:25.674Z,95.10
2018-04-25T04:48:53.954Z,95.00
2018-04-25T04:51:22.199Z,94.70
2018-04-25T04:53:50.486Z,94.70
2018-04-25T04:56:18.729Z,95.10
2018-04-25T04:58:46.239Z,94.90
2018-04-25T05:01:13.730Z,95.10
2018-04-25T05:03:41.256Z,94.70
2018-04-25T05:06:08.739Z,94.90
2018-04-25T05:08:36.311Z,95.10
2018-04-25T05:11:03.805Z,95.20
2018-04-25T05:13:31.338Z,95.30
2018-04-25T05:15:58.837Z,95.60
2018-04-25T05:18:26.317Z,95.70
2018-04-25T05:20:53.837Z,95.60
2018-04-25T05:23:22.131Z,96.00
2018-04-25T05:25:49.661Z,95.90
2018-04-25T05:28:17.145Z,95.80
2018-04-25T05:30:44.666Z,95.80
2018-04-25T05:33:12.155Z,95.90
2018-04-25T05:35:39.683Z,96.10
2018-04-25T05:38:07.174Z,96.30
2018-04-25T05:40:34.702Z,96.30
2018-04-25T05:43:02.214Z,96.40
2018-04-25T05:45:30.497Z,96.50
2018-04-25T05:47:58.750Z,96.20
2018-04-25T05:50:26.354Z,96.10
2018-04-25T05:52:54.617Z,96.10
2018-04-25T05:55:22.101Z,96.10
2018-04-25T05:57:50.437Z,96.20
2018-04-25T06:00:17.890Z,96.10
2018-04-25T06:02:45.405Z,96.00
2018-04-25T06:05:13.653Z,95.70
2018-04-25T06:07:41.184Z,95.70
2018-04-25T06:10:08.677Z,95.60
2018-04-25T06:12:36.996Z,95.90
2018-04-25T06:15:04.469Z,95.90
2018-04-25T06:17:31.986Z,95.80
2018-04-25T06:19:59.475Z,95.60
2018-04-25T06:22:27.770Z,95.10
2018-04-25T06:24:56.014Z,94.80
2018-04-25T06:27:23.521Z,94.80
2018-04-25T06:29:51.051Z,94.70
2018-04-25T06:32:18.553Z,94.10
2018-04-25T06:34:46.854Z,93.70
2018-04-25T06:37:15.166Z,93.80
2018-04-25T06:39:42.646Z,93.50
2018-04-25T06:42:10.123Z,93.30
2018-04-25T06:44:37.741Z,93.00
2018-04-25T06:47:05.915Z,93.30
2018-04-25T06:49:33.433Z,93.30
2018-04-25T06:52:01.675Z,93.80
2018-04-25T06:54:29.199Z,93.50
2018-04-25T06:56:56.681Z,93.40
2018-04-25T06:59:24.191Z,94.10
2018-04-25T07:01:51.670Z,94.10
2018-04-25T07:04:19.194Z,94.10
2018-04-25T07:06:46.678Z,94.30
2018-04-25T07:09:14.198Z,93.90
2018-04-25T07:11:41.682Z,93.70
2018-04-25T07:14:10.071Z,94.70
2018-04-25T07:16:37.489Z,94.70
2018-04-25T07:19:04.972Z,95.90
2018-04-25T07:21:32.497Z,95.80
2018-04-25T07:23:59.978Z,96.40
2018-04-25T07:26:27.505Z,96.00
2018-04-25T07:28:55.004Z,95.40
2018-04-25T07:31:23.297Z,94.60
2018-04-25T07:33:51.546Z,94.20
2018-04-25T07:36:19.064Z,94.20
2018-04-25T07:38:46.549Z,94.00
2018-04-25T07:41:14.085Z,93.90
2018-04-25T07:43:42.347Z,94.30
2018-04-25T07:46:09.858Z,94.10
2018-04-25T07:48:38.177Z,93.10
2018-04-25T07:51:05.649Z,93.20
2018-04-25T07:53:33.142Z,93.00
2018-04-25T07:56:00.628Z,93.10
2018-04-25T07:58:28.138Z,94.10
2018-04-25T08:00:55.627Z,97.70
2018-04-25T08:03:23.145Z,99.90
2018-04-25T08:05:50.636Z,99.90
2018-04-25T08:08:18.910Z,99.90
2018-04-25T08:10:46.390Z,99.90
2018-04-25T08:13:25.929Z,99.90
2018-04-25T08:16:05.326Z,99.90
2018-04-25T08:18:44.780Z,99.90
2018-04-25T08:21:24.163Z,99.90
2018-04-25T08:23:51.716Z,99.90
2018-04-25T08:26:19.182Z,99.90
2018-04-25T08:28:46.688Z,99.90
2018-04-25T08:31:14.181Z,99.90
2018-04-25T08:33:41.669Z,99.90
2018-04-25T08:36:09.947Z,99.90
2018-04-25T08:38:37.474Z,99.90
2018-04-25T08:41:04.961Z,99.90
2018-04-25T08:43:32.659Z,99.90
2018-04-25T08:46:00.145Z,99.90
2018-04-25T08:48:28.397Z,99.90
2018-04-25T08:50:55.921Z,99.90
2018-04-25T08:53:23.393Z,99.90
2018-04-25T08:55:50.915Z,99.90
2018-04-25T08:58:18.409Z,98.90
2018-04-25T09:00:46.693Z,97.60
2018-04-25T09:03:14.177Z,97.60
2018-04-25T09:05:41.693Z,98.20
2018-04-25T09:08:09.173Z,97.90
2018-04-25T09:10:36.705Z,96.60
2018-04-25T09:13:04.190Z,96.50
2018-04-25T09:15:31.789Z,97.00
2018-04-25T09:17:59.210Z,94.90
2018-04-25T09:20:26.847Z,93.40
2018-04-25T09:22:54.243Z,92.60
2018-04-25T09:25:21.726Z,90.10
2018-04-25T09:27:50.018Z,84.70
2018-04-25T09:30:17.503Z,84.80
2018-04-25T09:32:44.985Z,81.50
2018-04-25T09:35:12.511Z,83.30
2018-04-25T09:37:40.792Z,85.80
2018-04-25T09:40:08.275Z,85.70
2018-04-25T09:42:35.785Z,84.80
2018-04-25T09:45:03.265Z,84.30
2018-04-25T09:47:30.782Z,84.00
2018-04-25T09:49:58.265Z,83.40
2018-04-25T09:52:26.542Z,81.10
2018-04-25T09:54:54.029Z,81.00
2018-04-25T09:57:21.557Z,83.00
2018-04-25T09:59:49.045Z,79.80
2018-04-25T10:02:22.250Z,82.10
2018-04-25T10:04:49.739Z,79.50
2018-04-25T10:07:17.272Z,77.90
2018-04-25T10:09:44.760Z,80.20
2018-04-25T10:12:12.247Z,79.10
2018-04-25T10:14:40.531Z,76.70
2018-04-25T10:17:08.077Z,76.70
2018-04-25T10:19:35.585Z,72.20
2018-04-25T10:22:03.075Z,72.00
2018-04-25T10:24:30.593Z,72.60
2018-04-25T10:26:58.076Z,72.80
2018-04-25T10:29:25.616Z,72.10
2018-04-25T10:31:53.113Z,71.80
2018-04-25T10:34:20.631Z,71.30
2018-04-25T10:36:48.111Z,72.60
2018-04-25T10:39:15.625Z,70.80
2018-04-25T10:41:43.114Z,70.00
2018-04-25T10:44:10.661Z,68.40
2018-04-25T10:46:38.148Z,64.10
2018-04-25T10:49:05.629Z,63.60
2018-04-25T10:51:33.152Z,60.40
2018-04-25T10:54:00.628Z,60.70
2018-04-25T10:56:28.154Z,62.60
2018-04-25T10:58:56.416Z,65.70
2018-04-25T11:01:23.947Z,65.70
2018-04-25T11:03:51.432Z,69.80
2018-04-25T11:06:18.961Z,74.20
2018-04-25T11:08:47.210Z,80.70
2018-04-25T11:11:14.734Z,80.70
2018-04-25T11:13:42.992Z,82.20
2018-04-25T11:16:10.507Z,82.20
2018-04-25T11:18:37.983Z,80.90
2018-04-25T11:21:05.501Z,80.40
2018-04-25T11:23:33.009Z,80.40
2018-04-25T11:26:00.493Z,79.80
2018-04-25T11:28:27.992Z,79.20
2018-04-25T11:30:55.518Z,78.00
2018-04-25T11:33:23.901Z,77.30
2018-04-25T11:35:51.418Z,74.10
2018-04-25T11:38:18.943Z,73.50
2018-04-25T11:40:47.193Z,72.10
2018-04-25T11:43:14.719Z,72.10
2018-04-25T11:45:42.969Z,70.40
2018-04-25T11:48:10.485Z,70.40
2018-04-25T11:50:37.970Z,70.40
2018-04-25T11:53:05.485Z,70.20
2018-04-25T11:55:32.965Z,70.40
2018-04-25T11:58:00.528Z,68.50
2018-04-25T12:00:28.014Z,68.50
2018-04-25T12:02:57.417Z,67.90
2018-04-25T12:05:24.891Z,67.90
2018-04-25T12:07:52.377Z,67.50
2018-04-25T12:10:20.662Z,67.40
2018-04-25T12:12:48.934Z,64.50
2018-04-25T12:15:16.459Z,64.40
2018-04-25T12:17:43.945Z,61.50
2018-04-25T12:20:11.467Z,61.10
2018-04-25T12:22:39.712Z,58.60
2018-04-25T12:25:07.234Z,58.60
2018-04-25T12:27:35.505Z,60.80
2018-04-25T12:30:03.018Z,60.70
2018-04-25T12:32:30.521Z,60.90
2018-04-25T12:34:58.035Z,59.00
2018-04-25T12:37:25.534Z,59.40
2018-04-25T12:39:53.058Z,61.10
2018-04-25T12:42:20.547Z,61.60
2018-04-25T12:44:48.842Z,60.20
2018-04-25T12:47:16.410Z,60.20
2018-04-25T12:49:43.865Z,59.90
2018-04-25T12:52:11.357Z,61.20
2018-04-25T12:54:38.874Z,62.90
2018-04-25T12:57:06.396Z,60.70
2018-04-25T12:59:33.882Z,60.80
2018-04-25T13:02:01.365Z,59.40
2018-04-25T13:04:28.887Z,61.30
2018-04-25T13:06:56.365Z,58.30
2018-04-25T13:09:23.917Z,57.00
2018-04-25T13:11:51.399Z,55.50
2018-04-25T13:14:18.878Z,55.60
2018-04-25T13:16:46.397Z,55.70
2018-04-25T13:19:14.599Z,55.20
2018-04-25T13:21:42.114Z,56.30
2018-04-25T13:24:09.820Z,56.80
2018-04-25T13:26:37.346Z,56.00
2018-04-25T13:29:04.855Z,55.80
2018-04-25T13:31:33.139Z,55.40
2018-04-25T13:34:01.386Z,55.30
2018-04-25T13:36:28.906Z,55.30
2018-04-25T13:38:56.390Z,56.20
2018-04-25T13:41:23.926Z,56.90
2018-04-25T13:43:52.170Z,58.70
2018-04-25T13:46:20.453Z,58.50
2018-04-25T13:48:47.939Z,58.50
2018-04-25T13:51:15.460Z,59.30
2018-04-25T13:53:43.709Z,57.10
2018-04-25T13:56:11.244Z,57.10
2018-04-25T13:58:39.490Z,54.20
2018-04-25T14:01:06.982Z,54.30
2018-04-25T14:03:34.498Z,54.40
2018-04-25T14:06:01.999Z,55.80
2018-04-25T14:08:29.527Z,55.50
2018-04-25T14:10:57.015Z,55.40
2018-04-25T14:13:24.542Z,55.70
2018-04-25T14:15:52.788Z,53.80
2018-04-25T14:18:20.305Z,53.80
2018-04-25T14:20:47.798Z,54.40
2018-04-25T14:23:15.317Z,53.80
2018-04-25T14:25:42.797Z,54.50
2018-04-25T14:28:11.066Z,55.20
2018-04-25T14:30:38.548Z,55.20
2018-04-25T14:33:06.069Z,54.50
2018-04-25T14:35:33.553Z,55.70
2018-04-25T14:38:01.062Z,57.70
2018-04-25T14:40:28.542Z,58.00
2018-04-25T14:42:56.805Z,59.80
2018-04-25T14:45:24.318Z,59.80
2018-04-25T14:47:52.565Z,60.00
2018-04-25T14:50:20.074Z,59.80
2018-04-25T14:52:47.557Z,58.20
2018-04-25T14:55:15.073Z,56.80
2018-04-25T14:57:42.561Z,56.90
2018-04-25T15:00:10.080Z,57.40
2018-04-25T15:02:37.579Z,57.20
2018-04-25T15:05:05.093Z,57.20
2018-04-25T15:07:33.347Z,58.00
2018-04-25T15:10:00.857Z,57.80
2018-04-25T15:12:29.101Z,56.10
2018-04-25T15:14:56.609Z,56.10
2018-04-25T15:17:24.084Z,55.20
2018-04-25T15:19:52.404Z,55.20
2018-04-25T15:22:19.929Z,55.10
2018-04-25T15:24:47.444Z,56.10
2018-04-25T15:27:14.961Z,56.00
2018-04-25T15:29:42.438Z,56.30
2018-04-25T15:32:09.952Z,56.20
2018-04-25T15:34:37.428Z,55.50
2018-04-25T15:37:04.944Z,55.30
2018-04-25T15:39:32.441Z,56.20
2018-04-25T15:42:00.725Z,54.90
2018-04-25T15:44:28.209Z,54.90
2018-04-25T15:46:56.501Z,52.30
2018-04-25T15:49:23.993Z,52.30
2018-04-25T15:51:51.515Z,50.10
2018-04-25T15:54:19.022Z,51.10
2018-04-25T15:56:46.549Z,50.70
2018-04-25T15:59:14.039Z,51.20
2018-04-25T16:01:41.529Z,51.80
2018-04-25T16:04:09.818Z,52.20
2018-04-25T16:06:38.083Z,53.50
2018-04-25T16:09:05.599Z,53.50
2018-04-25T16:11:33.096Z,53.40
2018-04-25T16:14:00.610Z,54.00
2018-04-25T16:16:28.098Z,53.90
2018-04-25T16:18:55.618Z,53.50
2018-04-25T16:21:23.114Z,52.70
2018-04-25T16:23:50.626Z,52.30
2018-04-25T16:26:18.117Z,52.40
2018-04-25T16:28:45.634Z,49.90
2018-04-25T16:31:13.942Z,48.40
2018-04-25T16:33:41.423Z,48.40
2018-04-25T16:36:08.952Z,47.80
2018-04-25T16:38:37.407Z,46.40
2018-04-25T16:41:05.014Z,46.20
2018-04-25T16:43:32.546Z,46.40
2018-04-25T16:46:00.038Z,48.70
2018-04-25T16:48:27.519Z,51.70
2018-04-25T16:50:55.041Z,51.80
2018-04-25T16:53:22.526Z,51.10
2018-04-25T16:55:50.053Z,52.80
2018-04-25T16:58:17.551Z,53.10
2018-04-25T17:00:45.835Z,52.80
2018-04-25T17:03:14.074Z,52.80
2018-04-25T17:05:41.590Z,52.80
2018-04-25T17:08:09.830Z,53.30
2018-04-25T17:10:37.349Z,53.20
2018-04-25T17:13:05.605Z,55.00
2018-04-25T17:15:33.185Z,54.90
2018-04-25T17:18:00.678Z,54.30
2018-04-25T17:20:28.953Z,53.50
2018-04-25T17:22:57.248Z,53.90
2018-04-25T17:25:24.748Z,53.90
2018-04-25T17:27:52.229Z,54.00
2018-04-25T17:30:19.791Z,53.70
2018-04-25T17:32:47.302Z,53.80
2018-04-25T17:35:14.855Z,53.90
2018-04-25T17:37:42.392Z,53.90
2018-04-25T17:40:09.875Z,53.90
2018-04-25T17:42:37.402Z,54.70
2018-04-25T17:45:04.894Z,54.40
2018-04-25T17:47:32.415Z,54.90
2018-04-25T17:49:59.914Z,55.40
2018-04-25T17:52:27.436Z,55.60
2018-04-25T17:54:54.913Z,54.60
2018-04-25T17:57:22.425Z,55.30
2018-04-25T17:59:49.897Z,55.40
2018-04-25T18:02:17.421Z,55.30
2018-04-25T18:04:44.906Z,56.20
2018-04-25T18:07:12.434Z,56.50
2018-04-25T18:09:39.926Z,57.00
2018-04-25T18:12:07.443Z,57.40
2018-04-25T18:14:34.928Z,57.60
2018-04-25T18:17:02.561Z,57.20
2018-04-25T18:19:29.999Z,57.40
2018-04-25T18:21:58.245Z,59.10
2018-04-25T18:24:25.761Z,59.10
2018-04-25T18:26:54.026Z,60.00
2018-04-25T18:29:21.566Z,59.90
2018-04-25T18:31:49.050Z,60.50
2018-04-25T18:34:16.582Z,61.00
2018-04-25T18:36:44.072Z,62.00
2018-04-25T18:39:11.606Z,62.40
2018-04-25T18:41:39.085Z,62.90
2018-04-25T18:44:07.382Z,65.00
2018-04-25T18:46:34.875Z,65.00
2018-04-25T18:49:02.397Z,66.60
2018-04-25T18:51:29.882Z,67.10
2018-04-25T18:53:58.158Z,67.10
2018-04-25T18:56:25.671Z,67.00
2018-04-25T18:58:53.193Z,67.90
2018-04-25T19:01:20.928Z,68.60
2018-04-25T19:03:48.445Z,68.70
2018-04-25T19:06:16.709Z,68.80
2018-04-25T19:08:44.225Z,68.70
2018-04-25T19:11:11.722Z,68.10
2018-04-25T19:13:39.229Z,68.60
2018-04-25T19:16:06.741Z,66.60
2018-04-25T19:18:34.225Z,65.90
2018-04-25T19:21:01.743Z,65.70
2018-04-25T19:23:29.235Z,65.40
2018-04-25T19:25:56.817Z,65.70
2018-04-25T19:28:24.773Z,66.30
2018-04-25T19:30:52.285Z,65.90
2018-04-25T19:33:20.530Z,67.80
2018-04-25T19:35:48.037Z,67.70
2018-04-25T19:38:16.317Z,69.20
2018-04-25T19:40:43.833Z,69.30
2018-04-25T19:43:11.317Z,70.00
2018-04-25T19:45:38.853Z,70.00
2018-04-25T19:48:06.339Z,70.50
2018-04-25T19:50:33.866Z,71.10
2018-04-25T19:53:01.345Z,71.60
2018-04-25T19:55:28.862Z,71.70
2018-04-25T19:57:56.378Z,72.10
2018-04-25T20:00:23.883Z,73.50
2018-04-25T20:02:51.402Z,73.80
2018-04-25T20:05:18.891Z,73.10
2018-04-25T20:07:46.565Z,73.50
2018-04-25T20:10:14.050Z,74.00
2018-04-25T20:12:41.581Z,74.30
2018-04-25T20:15:09.062Z,75.00
2018-04-25T20:17:36.691Z,75.60
2018-04-25T20:20:04.205Z,75.10
2018-04-25T20:22:32.102Z,74.50
2018-04-25T20:24:59.582Z,73.10
2018-04-25T20:27:27.099Z,73.40
2018-04-25T20:29:54.666Z,71.60
2018-04-25T20:32:22.197Z,69.80
2018-04-25T20:34:49.681Z,67.80
2018-04-25T20:37:17.966Z,64.30
2018-04-25T20:39:45.450Z,64.20
2018-04-25T20:42:13.725Z,63.80
2018-04-25T20:44:41.242Z,63.70
2018-04-25T20:47:08.730Z,64.00
2018-04-25T20:49:36.299Z,64.40
2018-04-25T20:52:03.781Z,64.80
2018-04-25T20:54:31.314Z,64.80
2018-04-25T20:56:58.881Z,65.20
2018-04-25T20:59:26.325Z,65.50
2018-04-25T21:01:53.905Z,65.40
2018-04-25T21:04:21.473Z,65.60
2018-04-25T21:06:49.734Z,65.40
2018-04-25T21:09:17.257Z,65.30
2018-04-25T21:11:44.752Z,66.00
2018-04-25T21:14:12.274Z,65.30
2018-04-25T21:16:40.522Z,65.30
2018-04-25T21:19:08.045Z,65.00
2018-04-25T21:21:35.570Z,64.90
2018-04-25T21:24:03.839Z,64.40
2018-04-25T21:26:31.350Z,64.40
2018-04-25T21:28:59.239Z,64.00
2018-04-25T21:31:26.767Z,63.60
2018-04-25T21:33:54.253Z,64.60
2018-04-25T21:36:22.547Z,64.60
2018-04-25T21:38:50.838Z,64.20
2018-04-25T21:41:18.360Z,64.60
2018-04-25T21:43:46.726Z,65.40
2018-04-25T21:46:14.253Z,65.40
2018-04-25T21:48:41.750Z,66.10
2018-04-25T21:51:09.307Z,66.40
2018-04-25T21:53:36.788Z,67.70
2018-04-25T21:56:04.318Z,68.40
2018-04-25T21:58:31.830Z,67.30
2018-04-25T22:00:59.362Z,68.00
2018-04-25T22:03:26.851Z,68.50
2018-04-25T22:05:54.383Z,69.00
2018-04-25T22:08:22.626Z,71.30
2018-04-25T22:10:50.113Z,71.30
2018-04-25T22:13:17.631Z,72.70
2018-04-25T22:15:45.132Z,73.30
2018-04-25T22:18:12.639Z,75.80
2018-04-25T22:20:40.119Z,75.70
2018-04-25T22:23:09.256Z,76.60
2018-04-25T22:25:36.736Z,75.70
2018-04-25T22:28:04.240Z,76.20
2018-04-25T22:30:31.733Z,77.00
2018-04-25T22:32:59.251Z,76.80
2018-04-25T22:35:26.738Z,77.20
2018-04-25T22:37:54.246Z,77.60
2018-04-25T22:40:21.738Z,78.20
2018-04-25T22:42:50.009Z,78.80
2018-04-25T22:45:17.497Z,78.80
2018-04-25T22:47:45.770Z,80.20
2018-04-25T22:50:13.250Z,80.10
2018-04-25T22:52:40.765Z,80.60
2018-04-25T22:55:08.254Z,80.80
2018-04-25T22:57:35.779Z,81.60
2018-04-25T23:00:04.024Z,83.30
2018-04-25T23:02:31.570Z,83.20
2018-04-25T23:04:59.054Z,84.20
2018-04-25T23:07:27.442Z,84.50
2018-04-25T23:09:54.956Z,85.30
2018-04-25T23:12:23.209Z,86.20
2018-04-25T23:14:50.718Z,86.10
2018-04-25T23:17:18.202Z,86.40
2018-04-25T23:19:46.478Z,85.30
2018-04-25T23:22:13.963Z,85.30
2018-04-25T23:24:42.241Z,84.80
2018-04-25T23:27:10.490Z,84.90
2018-04-25T23:29:38.001Z,84.80
2018-04-25T23:32:06.258Z,85.70
2018-04-25T23:34:33.773Z,85.70
2018-04-25T23:37:02.019Z,85.30
2018-04-25T23:39:29.542Z,85.30
2018-04-25T23:41:57.019Z,85.10
2018-04-25T23:44:24.494Z,85.30
2018-04-25T23:46:52.009Z,85.10
2018-04-25T23:49:19.489Z,85.10
2018-04-25T23:51:47.004Z,85.60
2018-04-25T23:54:14.482Z,86.10
2018-04-25T23:56:42.019Z,86.50
2018-04-25T23:59:10.274Z,86.10
